createdAt,value
2018-11-29T05:00:55.808Z,10.21
2018-11-29T05:01:55.682Z,10.28
2018-11-29T05:03:48.342Z,10.18
2018-11-29T05:04:48.231Z,10.20
2018-11-29T05:06:40.910Z,10.29
2018-11-29T05:07:40.779Z,10.32
2018-11-29T05:09:33.448Z,10.32
2018-11-29T05:10:33.333Z,10.21
2018-11-29T05:12:26.023Z,10.33
2018-11-29T05:13:25.894Z,10.18
2018-11-29T05:15:18.628Z,10.28
2018-11-29T05:16:18.469Z,10.25
2018-11-29T05:18:11.148Z,10.25
2018-11-29T05:19:11.041Z,10.25
2018-11-29T05:21:03.714Z,10.21
2018-11-29T05:22:03.573Z,10.20
2018-11-29T05:23:56.237Z,10.17
2018-11-29T05:24:56.129Z,10.17
2018-11-29T05:26:48.803Z,10.20
2018-11-29T05:27:48.680Z,10.17
2018-11-29T05:29:41.343Z,10.20
2018-11-29T05:30:41.234Z,10.14
2018-11-29T05:32:33.913Z,10.15
2018-11-29T05:33:33.786Z,10.13
2018-11-29T05:35:26.450Z,10.15
2018-11-29T05:36:26.340Z,10.15
2018-11-29T05:38:19.017Z,10.07
2018-11-29T05:39:18.887Z,10.07
2018-11-29T05:41:11.552Z,10.11
2018-11-29T05:42:11.445Z,10.11
2018-11-29T05:44:04.129Z,10.13
2018-11-29T05:45:03.996Z,10.10
2018-11-29T05:46:56.689Z,10.10
2018-11-29T05:47:56.557Z,10.10
2018-11-29T05:49:49.214Z,10.07
2018-11-29T05:50:49.109Z,10.11
2018-11-29T05:52:42.050Z,10.03
2018-11-29T05:53:41.656Z,10.03
2018-11-29T05:55:34.327Z,9.99
2018-11-29T05:56:34.208Z,9.95
2018-11-29T05:58:26.889Z,10.00
2018-11-29T05:59:26.764Z,9.99
2018-11-29T06:01:19.433Z,9.95
2018-11-29T06:02:19.325Z,9.95
2018-11-29T06:04:12.008Z,9.92
2018-11-29T06:05:11.877Z,9.95
2018-11-29T06:07:04.552Z,9.99
2018-11-29T06:08:04.436Z,9.95
2018-11-29T06:09:57.117Z,9.96
2018-11-29T06:10:56.990Z,9.98
2018-11-29T06:12:49.672Z,9.96
2018-11-29T06:13:49.545Z,9.93
2018-11-29T06:15:42.210Z,9.99
2018-11-29T06:16:42.157Z,9.92
2018-11-29T06:18:35.797Z,9.96
2018-11-29T06:19:35.645Z,9.93
2018-11-29T06:21:28.352Z,9.95
2018-11-29T06:22:28.242Z,9.84
2018-11-29T06:24:20.920Z,9.95
2018-11-29T06:25:20.773Z,9.90
2018-11-29T06:27:13.442Z,9.89
2018-11-29T06:28:13.334Z,9.92
2018-11-29T06:30:06.014Z,9.96
2018-11-29T06:31:05.887Z,9.88
2018-11-29T06:32:58.618Z,9.93
2018-11-29T06:33:58.497Z,9.92
2018-11-29T06:35:51.157Z,9.89
2018-11-29T06:36:51.049Z,9.99
2018-11-29T06:38:43.723Z,9.84
2018-11-29T06:39:43.600Z,9.92
2018-11-29T06:41:36.261Z,9.96
2018-11-29T06:42:36.149Z,9.98
2018-11-29T06:44:28.833Z,9.92
2018-11-29T06:45:28.701Z,9.88
2018-11-29T06:47:21.370Z,9.99
2018-11-29T06:48:21.252Z,9.95
2018-11-29T06:50:13.941Z,9.82
2018-11-29T06:51:13.809Z,9.88
2018-11-29T06:53:06.494Z,9.81
2018-11-29T06:54:06.361Z,9.84
2018-11-29T06:55:59.077Z,9.85
2018-11-29T06:56:59.006Z,9.85
2018-11-29T06:58:51.625Z,9.82
2018-11-29T06:59:51.486Z,9.84
2018-11-29T07:01:44.143Z,9.81
2018-11-29T07:02:44.076Z,9.78
2018-11-29T07:04:36.760Z,9.88
2018-11-29T07:05:36.705Z,9.80
2018-11-29T07:07:29.300Z,9.82
2018-11-29T07:08:29.182Z,9.85
2018-11-29T07:10:21.909Z,9.78
2018-11-29T07:11:21.747Z,9.84
2018-11-29T07:13:14.447Z,9.84
2018-11-29T07:14:14.293Z,9.84
2018-11-29T07:16:06.959Z,9.84
2018-11-29T07:17:06.866Z,9.85
2018-11-29T07:18:59.564Z,9.81
2018-11-29T07:19:59.460Z,9.84
2018-11-29T07:21:52.120Z,9.88
2018-11-29T07:22:52.041Z,9.88
2018-11-29T07:24:44.691Z,9.82
2018-11-29T07:25:44.607Z,9.81
2018-11-29T07:27:37.260Z,9.81
2018-11-29T07:28:37.145Z,9.88
2018-11-29T07:30:29.820Z,9.85
2018-11-29T07:31:29.695Z,9.93
2018-11-29T07:33:22.430Z,9.99
2018-11-29T07:34:22.278Z,9.92
2018-11-29T07:36:15.095Z,9.92
2018-11-29T07:37:17.414Z,9.95
2018-11-29T07:39:07.510Z,9.95
2018-11-29T07:40:07.447Z,9.92
2018-11-29T07:42:00.155Z,9.89
2018-11-29T07:42:59.981Z,9.93
2018-11-29T07:44:52.661Z,9.98
2018-11-29T07:45:52.534Z,10.00
2018-11-29T07:47:45.191Z,10.08
2018-11-29T07:48:45.091Z,10.11
2018-11-29T07:50:37.783Z,10.05
2018-11-29T07:51:37.639Z,10.07
2018-11-29T07:53:30.817Z,10.15
2018-11-29T07:54:30.704Z,10.13
2018-11-29T07:56:23.424Z,10.15
2018-11-29T07:57:23.294Z,10.20
2018-11-29T07:59:16.039Z,10.25
2018-11-29T08:00:15.883Z,10.20
2018-11-29T08:02:08.558Z,10.31
2018-11-29T08:03:08.460Z,10.26
2018-11-29T08:05:01.212Z,10.31
2018-11-29T08:06:01.060Z,10.25
2018-11-29T08:07:53.733Z,10.28
2018-11-29T08:08:53.613Z,10.38
2018-11-29T08:10:46.294Z,10.36
2018-11-29T08:11:46.163Z,10.36
2018-11-29T08:13:39.013Z,10.41
2018-11-29T08:14:38.714Z,10.33
2018-11-29T08:16:31.397Z,10.36
2018-11-29T08:17:31.270Z,10.41
2018-11-29T08:19:23.947Z,10.39
2018-11-29T08:20:23.821Z,10.36
2018-11-29T08:22:16.480Z,10.46
2018-11-29T08:23:16.373Z,10.33
2018-11-29T08:25:09.054Z,10.38
2018-11-29T08:26:08.922Z,10.41
2018-11-29T08:28:01.596Z,10.33
2018-11-29T08:29:01.480Z,10.41
2018-11-29T08:30:54.159Z,10.36
2018-11-29T08:31:54.028Z,10.38
2018-11-29T08:33:46.696Z,10.35
2018-11-29T08:34:46.583Z,10.33
2018-11-29T08:36:39.269Z,10.51
2018-11-29T08:37:39.137Z,10.38
2018-11-29T08:39:31.827Z,10.52
2018-11-29T08:40:31.688Z,10.46
2018-11-29T08:42:24.355Z,10.42
2018-11-29T08:43:24.260Z,10.41
2018-11-29T08:45:16.925Z,10.46
2018-11-29T08:46:16.795Z,10.47
2018-11-29T08:48:09.455Z,10.55
2018-11-29T08:49:09.344Z,10.54
2018-11-29T08:51:02.035Z,10.57
2018-11-29T08:52:01.906Z,10.58
2018-11-29T08:53:55.067Z,10.69
2018-11-29T08:54:54.955Z,10.61
2018-11-29T08:56:47.631Z,10.63
2018-11-29T08:57:47.509Z,10.65
2018-11-29T08:59:40.187Z,10.63
2018-11-29T09:00:40.058Z,10.63
2018-11-29T09:02:32.722Z,10.65
2018-11-29T09:03:32.613Z,10.61
2018-11-29T09:05:25.293Z,10.61
2018-11-29T09:06:25.183Z,10.54
2018-11-29T09:08:17.839Z,10.65
2018-11-29T09:09:17.725Z,10.67
2018-11-29T09:11:10.406Z,10.65
2018-11-29T09:12:10.284Z,10.69
2018-11-29T09:14:02.963Z,10.65
2018-11-29T09:15:02.841Z,10.76
2018-11-29T09:16:55.504Z,10.67
2018-11-29T09:17:55.395Z,10.70
2018-11-29T09:19:48.072Z,10.77
2018-11-29T09:20:47.942Z,10.83
2018-11-29T09:22:40.623Z,10.79
2018-11-29T09:23:40.498Z,10.80
2018-11-29T09:25:33.163Z,10.87
2018-11-29T09:26:33.055Z,10.84
2018-11-29T09:28:25.734Z,10.88
2018-11-29T09:29:25.607Z,10.88
2018-11-29T09:31:18.272Z,10.85
2018-11-29T09:32:18.164Z,10.84
2018-11-29T09:34:10.855Z,10.94
2018-11-29T09:35:10.723Z,10.95
2018-11-29T09:37:03.416Z,10.91
2018-11-29T09:38:03.285Z,10.90
2018-11-29T09:39:55.949Z,10.90
2018-11-29T09:40:55.842Z,11.02
2018-11-29T09:42:48.526Z,10.94
2018-11-29T09:43:48.402Z,11.02
2018-11-29T09:45:41.063Z,11.08
2018-11-29T09:46:40.957Z,11.12
2018-11-29T09:48:33.638Z,10.98
2018-11-29T09:49:33.508Z,10.98
2018-11-29T09:51:26.193Z,11.00
2018-11-29T09:52:26.064Z,10.92
2018-11-29T09:54:18.734Z,11.08
2018-11-29T09:55:18.626Z,11.03
2018-11-29T09:57:11.302Z,11.08
2018-11-29T09:58:11.175Z,11.08
2018-11-29T10:00:03.849Z,11.15
2018-11-29T10:01:03.745Z,11.16
2018-11-29T10:02:56.425Z,11.21
2018-11-29T10:03:56.298Z,11.24
2018-11-29T10:05:48.963Z,11.35
2018-11-29T10:06:48.854Z,11.39
2018-11-29T10:08:41.533Z,11.45
2018-11-29T10:09:41.413Z,11.34
2018-11-29T10:11:34.089Z,11.34
2018-11-29T10:12:33.967Z,11.38
2018-11-29T10:14:26.630Z,11.42
2018-11-29T10:15:26.524Z,11.48
2018-11-29T10:17:19.201Z,11.51
2018-11-29T10:18:19.076Z,11.52
2018-11-29T10:20:11.743Z,11.66
2018-11-29T10:21:11.626Z,11.60
2018-11-29T10:23:04.309Z,11.63
2018-11-29T10:24:04.192Z,11.73
2018-11-29T10:25:56.874Z,11.76
2018-11-29T10:26:56.748Z,11.73
2018-11-29T10:28:49.408Z,11.75
2018-11-29T10:29:49.301Z,11.75
2018-11-29T10:31:41.993Z,11.85
2018-11-29T10:32:41.869Z,11.85
2018-11-29T10:34:34.539Z,11.78
2018-11-29T10:35:34.427Z,11.82
2018-11-29T10:37:27.113Z,11.70
2018-11-29T10:38:26.994Z,11.67
2018-11-29T10:40:19.650Z,11.64
2018-11-29T10:41:19.539Z,11.73
2018-11-29T10:43:12.226Z,11.66
2018-11-29T10:44:12.097Z,11.70
2018-11-29T10:46:04.789Z,11.59
2018-11-29T10:47:04.660Z,11.61
2018-11-29T10:48:57.328Z,11.67
2018-11-29T10:49:57.216Z,11.64
2018-11-29T10:51:49.903Z,11.70
2018-11-29T10:52:49.778Z,11.75
2018-11-29T10:54:42.441Z,11.67
2018-11-29T10:55:42.333Z,11.75
2018-11-29T10:57:35.014Z,11.75
2018-11-29T10:58:34.887Z,11.85
2018-11-29T11:00:27.556Z,11.89
2018-11-29T11:01:27.447Z,11.88
2018-11-29T11:03:20.133Z,11.95
2018-11-29T11:04:20.017Z,11.98
2018-11-29T11:06:12.682Z,11.97
2018-11-29T11:07:12.572Z,12.05
2018-11-29T11:09:05.254Z,11.97
2018-11-29T11:10:05.129Z,12.00
2018-11-29T11:11:57.802Z,11.97
2018-11-29T11:12:57.689Z,12.00
2018-11-29T11:14:50.376Z,11.88
2018-11-29T11:15:50.245Z,11.86
2018-11-29T11:17:42.934Z,11.86
2018-11-29T11:18:42.813Z,11.88
2018-11-29T11:20:35.487Z,11.88
2018-11-29T11:21:35.375Z,11.89
2018-11-29T11:23:28.065Z,11.84
2018-11-29T11:24:27.939Z,11.86
2018-11-29T11:26:20.615Z,11.94
2018-11-29T11:27:20.500Z,11.85
2018-11-29T11:29:13.183Z,11.94
2018-11-29T11:30:13.059Z,11.86
2018-11-29T11:32:05.728Z,11.88
2018-11-29T11:33:05.620Z,11.85
2018-11-29T11:34:58.306Z,11.85
2018-11-29T11:35:58.175Z,12.00
2018-11-29T11:37:50.862Z,12.04
2018-11-29T11:38:50.734Z,12.04
2018-11-29T11:40:43.405Z,12.22
2018-11-29T11:41:43.291Z,12.31
2018-11-29T11:43:35.985Z,12.25
2018-11-29T11:44:35.860Z,12.19
2018-11-29T11:46:28.529Z,12.28
2018-11-29T11:47:28.419Z,12.25
2018-11-29T11:49:21.102Z,12.41
2018-11-29T11:50:20.980Z,12.34
2018-11-29T11:52:13.645Z,12.34
2018-11-29T11:53:13.535Z,12.47
2018-11-29T11:55:06.219Z,12.45
2018-11-29T11:56:06.093Z,12.44
2018-11-29T11:57:58.780Z,12.58
2018-11-29T11:58:58.656Z,12.48
2018-11-29T12:00:51.328Z,12.45
2018-11-29T12:01:51.224Z,12.43
2018-11-29T12:03:43.905Z,12.56
2018-11-29T12:04:43.776Z,12.59
2018-11-29T12:06:36.448Z,12.63
2018-11-29T12:07:36.339Z,12.62
2018-11-29T12:09:29.574Z,12.61
2018-11-29T12:10:29.400Z,12.59
2018-11-29T12:12:22.082Z,12.58
2018-11-29T12:13:21.971Z,12.58
2018-11-29T12:15:14.668Z,12.63
2018-11-29T12:16:14.538Z,12.62
2018-11-29T12:18:07.231Z,12.61
2018-11-29T12:19:07.101Z,12.61
2018-11-29T12:20:59.779Z,12.59
2018-11-29T12:21:59.665Z,12.61
2018-11-29T12:23:52.351Z,12.48
2018-11-29T12:24:52.229Z,12.53
2018-11-29T12:26:44.902Z,12.65
2018-11-29T12:27:44.789Z,12.58
2018-11-29T12:29:37.474Z,12.61
2018-11-29T12:30:37.349Z,12.61
2018-11-29T12:32:30.031Z,12.65
2018-11-29T12:33:29.920Z,12.65
2018-11-29T12:35:22.602Z,12.61
2018-11-29T12:36:22.482Z,12.53
2018-11-29T12:38:15.170Z,12.48
2018-11-29T12:39:15.043Z,12.43
2018-11-29T12:41:07.710Z,12.36
2018-11-29T12:42:07.599Z,12.22
2018-11-29T12:44:00.294Z,12.31
2018-11-29T12:45:00.163Z,12.33
2018-11-29T12:46:52.831Z,12.26
2018-11-29T12:47:52.720Z,12.26
2018-11-29T12:49:45.412Z,12.22
2018-11-29T12:50:45.288Z,12.18
2018-11-29T12:52:37.962Z,12.20
2018-11-29T12:53:37.852Z,12.22
2018-11-29T12:55:30.535Z,12.20
2018-11-29T12:56:30.412Z,12.19
2018-11-29T12:58:23.076Z,12.16
2018-11-29T12:59:22.971Z,12.08
2018-11-29T13:01:15.656Z,12.05
2018-11-29T13:02:15.533Z,12.01
2018-11-29T13:04:08.219Z,11.97
2018-11-29T13:05:08.088Z,12.04
2018-11-29T13:07:00.758Z,12.00
2018-11-29T13:08:00.692Z,11.91
2018-11-29T13:09:53.336Z,12.00
2018-11-29T13:10:53.210Z,11.94
2018-11-29T13:12:45.873Z,11.89
2018-11-29T13:13:45.767Z,11.81
2018-11-29T13:15:38.449Z,11.78
2018-11-29T13:16:38.323Z,11.76
2018-11-29T13:18:30.998Z,11.76
2018-11-29T13:19:30.885Z,11.78
2018-11-29T13:21:23.672Z,11.66
2018-11-29T13:22:23.512Z,11.67
2018-11-29T13:24:16.236Z,11.63
2018-11-29T13:25:16.101Z,11.64
2018-11-29T13:27:08.771Z,11.48
2018-11-29T13:28:08.660Z,11.51
2018-11-29T13:30:01.357Z,11.46
2018-11-29T13:31:01.214Z,11.51
2018-11-29T13:32:53.880Z,11.43
2018-11-29T13:33:53.774Z,11.41
2018-11-29T13:35:46.459Z,11.46
2018-11-29T13:36:46.334Z,11.45
2018-11-29T13:38:39.488Z,11.43
2018-11-29T13:39:39.376Z,11.41
2018-11-29T13:41:32.088Z,11.41
2018-11-29T13:42:31.928Z,11.42
2018-11-29T13:44:25.105Z,11.41
2018-11-29T13:45:24.978Z,11.43
2018-11-29T13:47:17.650Z,11.45
2018-11-29T13:48:17.540Z,11.38
2018-11-29T13:50:11.732Z,11.39
2018-11-29T13:51:10.593Z,11.48
2018-11-29T13:53:03.249Z,11.46
2018-11-29T13:54:03.134Z,11.41
2018-11-29T13:55:55.833Z,11.28
2018-11-29T13:56:55.699Z,11.34
2018-11-29T13:58:48.377Z,11.30
2018-11-29T13:59:48.268Z,11.46
2018-11-29T14:01:41.005Z,11.42
2018-11-29T14:02:40.861Z,11.46
2018-11-29T14:04:33.558Z,11.43
2018-11-29T14:05:33.433Z,11.56
2018-11-29T14:07:26.120Z,11.49
2018-11-29T14:08:26.013Z,11.45
2018-11-29T14:10:18.778Z,11.43
2018-11-29T14:11:18.588Z,11.52
2018-11-29T14:13:11.391Z,11.46
2018-11-29T14:14:11.198Z,11.53
2018-11-29T14:16:03.896Z,11.51
2018-11-29T14:17:03.770Z,11.61
2018-11-29T14:18:56.499Z,11.56
2018-11-29T14:19:56.453Z,11.59
2018-11-29T14:21:51.275Z,11.60
2018-11-29T14:22:48.989Z,11.60
2018-11-29T14:24:41.771Z,11.59
2018-11-29T14:25:41.561Z,11.46
2018-11-29T14:27:34.241Z,11.48
2018-11-29T14:28:34.120Z,11.49
2018-11-29T14:30:26.830Z,11.56
2018-11-29T14:31:26.725Z,11.42
2018-11-29T14:33:19.381Z,11.43
2018-11-29T14:34:19.261Z,11.45
2018-11-29T14:36:11.940Z,11.43
2018-11-29T14:37:11.817Z,11.45
2018-11-29T14:39:04.521Z,11.38
2018-11-29T14:40:04.401Z,11.46
2018-11-29T14:41:57.087Z,11.34
2018-11-29T14:42:56.959Z,11.33
2018-11-29T14:44:49.677Z,11.38
2018-11-29T14:45:49.512Z,11.35
2018-11-29T14:47:42.179Z,11.48
2018-11-29T14:48:42.104Z,11.34
2018-11-29T14:50:34.875Z,11.34
2018-11-29T14:51:34.764Z,11.33
2018-11-29T14:53:27.287Z,11.34
2018-11-29T14:54:27.180Z,11.26
2018-11-29T14:56:19.871Z,11.31
2018-11-29T14:57:19.800Z,11.34
2018-11-29T14:59:12.414Z,11.30
2018-11-29T15:00:12.297Z,11.20
2018-11-29T15:02:04.982Z,11.31
2018-11-29T15:03:04.876Z,11.30
2018-11-29T15:04:57.676Z,11.31
2018-11-29T15:05:57.415Z,11.34
2018-11-29T15:07:50.099Z,11.38
2018-11-29T15:08:49.982Z,11.31
2018-11-29T15:10:42.656Z,11.23
2018-11-29T15:11:42.525Z,11.18
2018-11-29T15:13:35.192Z,11.16
2018-11-29T15:14:35.086Z,11.15
2018-11-29T15:16:27.765Z,11.12
2018-11-29T15:17:27.642Z,11.20
2018-11-29T15:19:20.307Z,11.16
2018-11-29T15:20:20.192Z,11.16
2018-11-29T15:22:13.374Z,11.13
2018-11-29T15:23:13.237Z,11.18
2018-11-29T15:25:05.915Z,11.18
2018-11-29T15:26:05.802Z,11.18
2018-11-29T15:27:58.487Z,11.15
2018-11-29T15:28:58.365Z,11.13
2018-11-29T15:30:51.043Z,11.15
2018-11-29T15:31:50.919Z,11.23
2018-11-29T15:33:43.580Z,11.18
2018-11-29T15:34:43.473Z,11.15
2018-11-29T15:36:36.150Z,11.15
2018-11-29T15:37:36.026Z,11.13
2018-11-29T15:39:28.692Z,11.18
2018-11-29T15:40:28.586Z,11.15
2018-11-29T15:42:21.757Z,11.12
2018-11-29T15:43:21.625Z,11.13
2018-11-29T15:45:14.295Z,11.20
2018-11-29T15:46:14.185Z,11.21
2018-11-29T15:48:06.857Z,11.20
2018-11-29T15:49:06.739Z,11.24
2018-11-29T15:50:59.414Z,11.13
2018-11-29T15:51:59.305Z,11.18
2018-11-29T15:53:51.953Z,11.27
2018-11-29T15:54:51.840Z,11.20
2018-11-29T15:56:45.241Z,11.23
2018-11-29T15:57:44.400Z,11.26
2018-11-29T15:59:37.069Z,11.30
2018-11-29T16:00:36.950Z,11.18
2018-11-29T16:02:29.632Z,11.30
2018-11-29T16:03:29.519Z,11.20
2018-11-29T16:05:22.172Z,11.21
2018-11-29T16:06:22.060Z,11.30
2018-11-29T16:08:14.741Z,11.24
2018-11-29T16:09:14.621Z,11.24
2018-11-29T16:11:07.286Z,11.27
2018-11-29T16:12:07.174Z,11.21
2018-11-29T16:13:59.884Z,11.27
2018-11-29T16:14:59.732Z,11.26
2018-11-29T16:16:52.505Z,11.26
2018-11-29T16:17:52.282Z,11.27
2018-11-29T16:19:45.118Z,11.39
2018-11-29T16:20:44.841Z,11.21
2018-11-29T16:22:37.519Z,11.24
2018-11-29T16:23:37.393Z,11.34
2018-11-29T16:25:30.070Z,11.26
2018-11-29T16:26:29.945Z,11.26
2018-11-29T16:28:22.625Z,11.26
2018-11-29T16:29:22.493Z,11.24
2018-11-29T16:31:15.168Z,11.23
2018-11-29T16:32:15.053Z,11.23
2018-11-29T16:34:07.743Z,11.27
2018-11-29T16:35:07.612Z,11.31
2018-11-29T16:37:00.296Z,11.26
2018-11-29T16:38:00.171Z,11.27
2018-11-29T16:39:52.877Z,11.27
2018-11-29T16:40:52.726Z,11.30
2018-11-29T16:42:45.406Z,11.18
2018-11-29T16:43:45.274Z,11.23
2018-11-29T16:45:37.943Z,11.23
2018-11-29T16:46:37.832Z,11.16
2018-11-29T16:48:30.507Z,11.30
2018-11-29T16:49:30.383Z,11.28
2018-11-29T16:51:23.051Z,11.30
2018-11-29T16:52:22.941Z,11.27
2018-11-29T16:54:15.620Z,11.21
2018-11-29T16:55:15.490Z,11.24
2018-11-29T16:57:08.254Z,11.09
2018-11-29T16:58:08.124Z,11.09
2018-11-29T17:00:00.798Z,11.05
2018-11-29T17:01:00.677Z,11.09
2018-11-29T17:02:53.365Z,11.09
2018-11-29T17:03:53.246Z,11.06
2018-11-29T17:05:46.399Z,11.13
2018-11-29T17:06:46.287Z,11.10
2018-11-29T17:08:38.966Z,11.08
2018-11-29T17:09:38.836Z,11.13
2018-11-29T17:11:31.501Z,11.03
2018-11-29T17:12:31.390Z,10.97
2018-11-29T17:14:24.568Z,10.92
2018-11-29T17:15:24.446Z,10.95
2018-11-29T17:17:17.126Z,11.00
2018-11-29T17:18:16.995Z,10.95
2018-11-29T17:20:09.663Z,11.15
2018-11-29T17:21:09.550Z,11.06
2018-11-29T17:23:02.720Z,11.09
2018-11-29T17:24:02.597Z,11.08
2018-11-29T17:25:55.260Z,11.09
2018-11-29T17:26:55.144Z,10.98
2018-11-29T17:28:48.050Z,11.00
2018-11-29T17:29:47.783Z,10.95
2018-11-29T17:31:40.390Z,10.90
2018-11-29T17:32:40.278Z,10.95
2018-11-29T17:34:32.956Z,10.94
2018-11-29T17:35:32.837Z,10.94
2018-11-29T17:37:25.512Z,10.98
2018-11-29T17:38:25.389Z,10.98
2018-11-29T17:40:18.074Z,11.08
2018-11-29T17:41:17.944Z,11.21
2018-11-29T17:43:10.628Z,11.20
2018-11-29T17:44:10.502Z,11.15
2018-11-29T17:46:03.162Z,11.27
2018-11-29T17:47:03.046Z,11.38
2018-11-29T17:48:55.747Z,11.31
2018-11-29T17:49:55.624Z,11.34
2018-11-29T17:51:53.625Z,11.30
2018-11-29T17:52:48.192Z,11.35
2018-11-29T17:54:40.872Z,11.28
2018-11-29T17:55:40.739Z,11.35
2018-11-29T17:57:33.415Z,11.23
2018-11-29T17:58:33.304Z,11.35
2018-11-29T18:00:25.983Z,11.30
2018-11-29T18:01:25.853Z,11.35
2018-11-29T18:03:18.532Z,11.27
2018-11-29T18:04:18.408Z,11.23
2018-11-29T18:06:11.066Z,11.27
2018-11-29T18:07:10.998Z,11.31
2018-11-29T18:09:03.639Z,11.34
2018-11-29T18:10:03.510Z,11.34
2018-11-29T18:11:56.178Z,11.38
2018-11-29T18:12:56.170Z,11.33
2018-11-29T18:14:48.747Z,11.43
2018-11-29T18:15:48.620Z,11.46
2018-11-29T18:17:41.287Z,11.51
2018-11-29T18:18:41.186Z,11.46
2018-11-29T18:20:33.870Z,11.53
2018-11-29T18:21:33.738Z,11.48
2018-11-29T18:23:26.425Z,11.46
2018-11-29T18:24:26.296Z,11.52
2018-11-29T18:26:18.963Z,11.49
2018-11-29T18:27:18.856Z,11.52
2018-11-29T18:29:11.537Z,11.52
2018-11-29T18:30:11.414Z,11.48
2018-11-29T18:32:04.094Z,11.39
2018-11-29T18:33:03.971Z,11.42
2018-11-29T18:34:56.655Z,11.45
2018-11-29T18:35:56.527Z,11.46
2018-11-29T18:37:50.139Z,11.41
2018-11-29T18:38:49.081Z,11.41
2018-11-29T18:40:41.764Z,11.38
2018-11-29T18:41:41.640Z,11.35
2018-11-29T18:43:34.311Z,11.34
2018-11-29T18:44:34.196Z,11.42
2018-11-29T18:46:26.882Z,11.23
2018-11-29T18:47:26.749Z,11.26
2018-11-29T18:49:19.432Z,11.34
2018-11-29T18:50:19.302Z,11.26
2018-11-29T18:52:11.968Z,11.18
2018-11-29T18:53:11.860Z,11.15
2018-11-29T18:55:04.541Z,11.16
2018-11-29T18:56:04.411Z,11.16
2018-11-29T18:57:57.080Z,11.08
2018-11-29T18:58:56.964Z,11.03
2018-11-29T19:00:49.655Z,11.03
2018-11-29T19:01:49.521Z,10.91
2018-11-29T19:03:42.189Z,10.91
2018-11-29T19:04:42.086Z,10.85
2018-11-29T19:06:34.767Z,10.84
2018-11-29T19:07:34.635Z,10.88
2018-11-29T19:09:27.317Z,10.94
2018-11-29T19:10:27.191Z,10.83
2018-11-29T19:12:19.855Z,10.77
2018-11-29T19:13:19.743Z,10.85
2018-11-29T19:15:12.422Z,10.80
2018-11-29T19:16:12.291Z,10.72
2018-11-29T19:18:10.288Z,10.70
2018-11-29T19:19:04.846Z,10.84
2018-11-29T19:20:58.029Z,10.85
2018-11-29T19:21:57.896Z,10.83
2018-11-29T19:23:50.563Z,10.79
2018-11-29T19:24:50.455Z,10.66
2018-11-29T19:26:43.136Z,10.66
2018-11-29T19:27:43.005Z,10.63
2018-11-29T19:29:35.786Z,10.72
2018-11-29T19:30:35.579Z,10.70
2018-11-29T19:32:28.281Z,10.63
2018-11-29T19:33:28.133Z,10.61
2018-11-29T19:35:20.811Z,10.59
2018-11-29T19:36:20.685Z,10.58
2018-11-29T19:38:13.352Z,10.54
2018-11-29T19:39:13.241Z,10.44
2018-11-29T19:41:05.935Z,10.54
2018-11-29T19:42:05.802Z,10.58
2018-11-29T19:43:58.684Z,10.55
2018-11-29T19:44:58.407Z,10.58
2018-11-29T19:46:51.089Z,10.63
2018-11-29T19:47:50.952Z,10.55
2018-11-29T19:49:43.638Z,10.66
2018-11-29T19:50:43.515Z,10.65
2018-11-29T19:52:36.179Z,10.77
2018-11-29T19:53:36.065Z,10.75
2018-11-29T19:55:28.752Z,10.85
2018-11-29T19:56:28.619Z,10.88
2018-11-29T19:58:21.305Z,10.90
2018-11-29T19:59:21.268Z,10.92
2018-11-29T20:01:14.185Z,11.05
2018-11-29T20:02:13.765Z,10.90
2018-11-29T20:04:06.489Z,10.98
2018-11-29T20:05:06.328Z,11.00
2018-11-29T20:06:59.038Z,10.98
2018-11-29T20:07:58.902Z,10.98
2018-11-29T20:09:51.584Z,10.98
2018-11-29T20:10:51.463Z,10.97
2018-11-29T20:12:44.131Z,10.95
2018-11-29T20:13:44.017Z,10.98
2018-11-29T20:15:36.700Z,11.00
2018-11-29T20:16:36.574Z,11.02
2018-11-29T20:18:29.741Z,11.00
2018-11-29T20:19:29.628Z,10.92
2018-11-29T20:21:22.315Z,10.91
2018-11-29T20:22:22.183Z,10.94
2018-11-29T20:24:15.343Z,11.00
2018-11-29T20:25:15.232Z,10.88
2018-11-29T20:27:07.917Z,10.92
2018-11-29T20:28:07.786Z,10.90
2018-11-29T20:30:00.453Z,10.91
2018-11-29T20:31:00.345Z,10.90
2018-11-29T20:32:53.513Z,10.90
2018-11-29T20:33:53.385Z,10.91
2018-11-29T20:35:46.063Z,10.87
2018-11-29T20:36:45.936Z,10.84
2018-11-29T20:38:38.601Z,10.95
2018-11-29T20:39:38.489Z,10.92
2018-11-29T20:41:31.270Z,10.91
2018-11-29T20:42:31.071Z,10.85
2018-11-29T20:44:24.239Z,10.94
2018-11-29T20:45:23.817Z,10.91
2018-11-29T20:47:16.443Z,10.95
2018-11-29T20:48:16.311Z,10.88
2018-11-29T20:50:08.975Z,10.94
2018-11-29T20:51:08.865Z,10.87
2018-11-29T20:53:02.048Z,11.03
2018-11-29T20:54:01.925Z,11.03
2018-11-29T20:55:54.605Z,11.02
2018-11-29T20:56:55.288Z,10.95
2018-11-29T20:58:47.270Z,10.87
2018-11-29T20:59:47.142Z,10.91
2018-11-29T21:01:39.827Z,10.94
2018-11-29T21:02:39.613Z,10.92
2018-11-29T21:04:32.279Z,10.91
2018-11-29T21:05:32.174Z,10.90
2018-11-29T21:07:24.855Z,10.84
2018-11-29T21:08:24.724Z,10.84
2018-11-29T21:10:17.393Z,10.92
2018-11-29T21:11:17.273Z,10.84
2018-11-29T21:13:09.963Z,10.83
2018-11-29T21:14:09.828Z,10.79
2018-11-29T21:16:02.514Z,10.85
2018-11-29T21:17:02.493Z,10.77
2018-11-29T21:18:55.069Z,10.84
2018-11-29T21:19:54.962Z,10.76
2018-11-29T21:21:47.646Z,10.76
2018-11-29T21:22:47.513Z,10.72
2018-11-29T21:24:40.184Z,10.72
2018-11-29T21:25:40.068Z,10.70
2018-11-29T21:27:33.242Z,10.69
2018-11-29T21:28:33.118Z,10.69
2018-11-29T21:30:25.787Z,10.69
2018-11-29T21:31:25.673Z,10.61
2018-11-29T21:33:18.841Z,10.69
2018-11-29T21:34:18.726Z,10.66
2018-11-29T21:36:11.404Z,10.65
2018-11-29T21:37:11.377Z,10.66
2018-11-29T21:39:03.944Z,10.69
2018-11-29T21:40:03.891Z,10.61
2018-11-29T21:41:56.527Z,10.67
2018-11-29T21:42:56.415Z,10.63
2018-11-29T21:44:49.063Z,10.59
2018-11-29T21:45:48.950Z,10.61
2018-11-29T21:47:41.639Z,10.66
2018-11-29T21:48:41.514Z,10.69
2018-11-29T21:50:34.177Z,10.63
2018-11-29T21:51:34.072Z,10.63
2018-11-29T21:53:26.749Z,10.65
2018-11-29T21:54:26.625Z,10.65
2018-11-29T21:56:19.466Z,10.65
2018-11-29T21:57:19.177Z,10.59
2018-11-29T21:59:11.839Z,10.57
2018-11-29T22:00:11.756Z,10.63
2018-11-29T22:02:04.415Z,10.58
2018-11-29T22:03:04.282Z,10.58
2018-11-29T22:04:56.954Z,10.54
2018-11-29T22:05:56.838Z,10.58
2018-11-29T22:07:49.817Z,10.55
2018-11-29T22:08:49.397Z,10.61
2018-11-29T22:10:42.066Z,10.57
2018-11-29T22:11:41.952Z,10.44
2018-11-29T22:13:34.629Z,10.63
2018-11-29T22:14:34.506Z,10.54
2018-11-29T22:16:27.183Z,10.49
2018-11-29T22:17:27.074Z,10.59
2018-11-29T22:19:19.757Z,10.55
2018-11-29T22:20:19.689Z,10.46
2018-11-29T22:22:12.305Z,10.65
2018-11-29T22:23:12.186Z,10.63
2018-11-29T22:25:04.852Z,10.59
2018-11-29T22:26:04.732Z,10.63
2018-11-29T22:27:57.413Z,10.63
2018-11-29T22:29:00.694Z,10.66
2018-11-29T22:30:49.958Z,10.61
2018-11-29T22:31:49.845Z,10.63
2018-11-29T22:33:42.527Z,10.61
2018-11-29T22:34:42.405Z,10.61
2018-11-29T22:36:35.070Z,10.54
2018-11-29T22:37:34.953Z,10.57
2018-11-29T22:39:28.141Z,10.67
2018-11-29T22:40:28.012Z,10.65
2018-11-29T22:42:20.724Z,10.70
2018-11-29T22:43:20.592Z,10.59
2018-11-29T22:45:13.260Z,10.70
2018-11-29T22:46:13.139Z,10.65
2018-11-29T22:48:05.827Z,10.61
2018-11-29T22:49:05.696Z,10.66
2018-11-29T22:50:58.362Z,10.67
2018-11-29T22:51:58.260Z,10.57
2018-11-29T22:53:50.931Z,10.69
2018-11-29T22:54:50.804Z,10.67
2018-11-29T22:56:43.467Z,10.73
2018-11-29T22:57:43.358Z,10.69
2018-11-29T22:59:36.043Z,10.67
